Pagina principală
METAR-TAF:

METAR-TAF

Aeroporturi :

Concepcion, Bolivia

Latitudine: 16-09S, longitudine: 062-01W, elevație: 497 m

Observații meteo curente

Raportul a fost făcut în urmă cu 58 de minute, la 20:00 UTC
Vânt 8 kt de la Sud
Temperatură 26°C
Umiditate 84%
Presiune 1013 hPa
Vizibilitate de 10 km sau mai mult
Nori împrăștiați la o înălțime de 1700 picior
Nori fragmentați la o înălțime de 20000 picior

METAR: SLCP 162000Z 18008KT 9999 SCT017 BKN200 26/23 Q1013

Ora: 16:58 (20:58 UTC)


TAF: lipsă

Observații și prognoze meteo pentru peste 4.000 de aeroporturi (rapoarte METAR și TAF).

Stațiile disponibile sunt reprezentate pe hartă prin puncte galbene și roșii.

Țineți indicatorul mouse-ului pe punctul dorit pentru a vedea denumirea stației.

Apoi, faceți clic pentru a vedea observațiile și prognozele meteorologice.

Pentru a schimba harta: Pentru mărire, faceți clic pe butoanele verzi cu cruce neagră; pentru micșorare, pe butonul verde cu o liniuță; pentru hărți învecinate, pe săgețile verzi.


METAR-TAF: